Time;durP1;ratioP1;P1;durP2;ratioP2;P2;SDS_P1;SDS_P2;PMS_P1;PMS_P2;Temp;Humidity;BMP_temperature;BMP_pressure;BME280_temperature;BME280_humidity;BME280_pressure;Samples;Min_cycle;Max_cycle;Signal;HPM_P1;HPM_P2
2023/07/18 00:00:10;;;;;;;3.55;1.20;;;;;;;21.19;52.07;102093.88;5061174;28;20107;-58
2023/07/18 00:02:36;;;;;;;3.33;1.40;;;;;;;21.17;52.15;102098.56;5065685;28;20078;-58
2023/07/18 00:05:01;;;;;;;2.30;1.35;;;;;;;21.17;51.76;102085.03;5036020;28;20383;-58
2023/07/18 00:07:26;;;;;;;2.28;1.15;;;;;;;21.17;51.84;102095.88;5062445;28;20033;-57
2023/07/18 00:09:52;;;;;;;5.57;1.67;;;;;;;21.16;52.18;102094.16;5064359;28;20500;-58
2023/07/18 00:12:17;;;;;;;2.95;1.70;;;;;;;21.15;52.17;102087.03;5056638;28;20123;-57
2023/07/18 00:14:42;;;;;;;3.45;2.17;;;;;;;21.14;52.05;102099.72;5061741;28;20094;-57
2023/07/18 00:17:08;;;;;;;3.63;1.58;;;;;;;21.14;51.90;102101.56;5060975;28;20491;-57
2023/07/18 00:19:34;;;;;;;2.70;1.40;;;;;;;21.13;52.07;102099.84;5058193;28;20037;-58
2023/07/18 00:21:59;;;;;;;5.88;1.60;;;;;;;21.12;52.09;102098.16;5063245;28;20215;-58
2023/07/18 00:24:24;;;;;;;4.75;1.60;;;;;;;21.11;51.83;102091.84;5059050;28;20043;-57
2023/07/18 00:26:50;;;;;;;5.65;1.90;;;;;;;21.12;51.97;102092.72;5066517;28;20042;-57
2023/07/18 00:29:15;;;;;;;3.40;1.65;;;;;;;21.11;52.06;102091.84;5060239;28;20033;-57
2023/07/18 00:31:41;;;;;;;4.32;1.92;;;;;;;21.11;51.51;102086.44;5061247;28;20120;-57
2023/07/18 00:34:06;;;;;;;2.92;1.60;;;;;;;21.11;51.91;102091.84;5054361;28;20029;-57
2023/07/18 00:36:32;;;;;;;2.50;1.48;;;;;;;21.11;51.58;102093.72;5060037;28;20029;-57
2023/07/18 00:38:57;;;;;;;3.08;1.50;;;;;;;21.10;51.48;102100.97;5056107;28;20509;-57
2023/07/18 00:41:23;;;;;;;3.72;1.80;;;;;;;21.09;51.54;102091.13;5059694;28;20122;-58
2023/07/18 00:43:48;;;;;;;5.25;1.70;;;;;;;21.09;51.46;102089.31;5059593;28;20029;-57
2023/07/18 00:46:15;;;;;;;8.50;1.95;;;;;;;21.08;51.98;102093.00;5059730;28;20037;-57
2023/07/18 00:48:40;;;;;;;4.13;1.83;;;;;;;21.07;51.93;102091.25;5060485;28;20475;-58
2023/07/18 00:51:07;;;;;;;6.72;1.58;;;;;;;21.07;51.53;102088.56;5059914;28;20029;-58
2023/07/18 00:53:35;;;;;;;4.53;1.90;;;;;;;21.05;51.72;102087.84;5056077;28;20033;-57
2023/07/18 00:56:01;;;;;;;4.95;1.88;;;;;;;21.06;52.05;102091.44;5060248;28;20035;-58
2023/07/18 00:58:28;;;;;;;3.70;1.77;;;;;;;21.05;51.94;102089.69;5060753;28;20124;-58
2023/07/18 01:00:54;;;;;;;4.88;1.92;;;;;;;21.04;51.88;102086.13;5059971;28;20095;-58
2023/07/18 01:03:20;;;;;;;6.18;1.80;;;;;;;21.05;51.92;102081.56;5058492;28;20033;-57
2023/07/18 01:05:45;;;;;;;4.68;1.77;;;;;;;21.03;51.93;102072.72;5056050;28;20029;-57
2023/07/18 01:08:11;;;;;;;2.80;1.75;;;;;;;21.02;51.80;102085.41;5061646;28;20439;-57
2023/07/18 01:10:38;;;;;;;4.70;1.92;;;;;;;21.01;51.44;102083.69;5057581;28;20033;-57
2023/07/18 01:13:03;;;;;;;5.18;1.95;;;;;;;21.02;51.66;102079.16;5060092;28;20032;-57
2023/07/18 01:15:33;;;;;;;2.25;1.55;;;;;;;21.01;51.58;102085.56;5062210;28;20045;-57
2023/07/18 01:18:03;;;;;;;2.85;1.60;;;;;;;20.99;51.28;102087.53;5056094;28;20507;-57
2023/07/18 01:20:29;;;;;;;5.47;1.98;;;;;;;20.99;51.32;102077.56;5058784;28;20021;-58
2023/07/18 01:22:59;;;;;;;6.15;2.08;;;;;;;20.99;51.34;102074.84;5056887;28;20103;-57
2023/07/18 01:25:26;;;;;;;6.87;2.13;;;;;;;20.98;51.78;102070.44;5064582;28;20033;-57
2023/07/18 01:27:55;;;;;;;4.00;1.80;;;;;;;20.98;51.79;102075.84;5059733;28;20029;-57
2023/07/18 01:30:24;;;;;;;5.28;1.95;;;;;;;20.98;51.61;102065.03;5059391;28;20029;-57
2023/07/18 01:32:50;;;;;;;3.65;1.70;;;;;;;20.97;51.62;102060.59;5057445;28;20400;-57
2023/07/18 01:35:17;;;;;;;6.07;1.88;;;;;;;20.97;52.02;102066.00;5064179;28;20067;-57
2023/07/18 01:37:46;;;;;;;3.53;1.92;;;;;;;20.95;52.04;102067.16;5059984;28;20032;-58
2023/07/18 01:40:15;;;;;;;3.08;1.80;;;;;;;20.95;51.50;102075.28;5062619;28;20123;-58
2023/07/18 01:42:42;;;;;;;3.92;2.00;;;;;;;20.95;51.68;102061.72;5055748;28;20025;-57
2023/07/18 01:45:08;;;;;;;5.13;1.92;;;;;;;20.94;51.96;102060.00;5057031;28;20024;-57
2023/07/18 01:47:36;;;;;;;3.38;2.03;;;;;;;20.93;52.02;102059.16;5044346;28;20067;-57
2023/07/18 01:50:03;;;;;;;4.35;2.00;;;;;;;20.92;51.56;102057.44;5059721;28;20474;-57
2023/07/18 01:52:29;;;;;;;5.15;2.58;;;;;;;20.93;51.93;102058.31;5058220;28;20092;-57
2023/07/18 01:54:59;;;;;;;4.72;2.13;;;;;;;20.92;52.19;102046.59;5037615;28;20029;-57
2023/07/18 01:57:42;;;;;;;4.43;2.20;;;;;;;20.92;52.10;102051.16;5057274;28;20037;-57
2023/07/18 02:00:11;;;;;;;3.17;2.03;;;;;;;20.90;51.97;102037.75;5048153;28;20471;-58
2023/07/18 02:02:37;;;;;;;4.43;2.25;;;;;;;20.91;52.39;102041.34;5056603;28;20493;-57
2023/07/18 02:05:04;;;;;;;6.03;2.40;;;;;;;20.89;52.25;102039.63;5055910;28;20029;-57
2023/07/18 02:07:29;;;;;;;3.80;2.08;;;;;;;20.88;51.80;102040.59;5057900;28;20040;-57
2023/07/18 02:09:55;;;;;;;4.45;2.58;;;;;;;20.88;52.20;102037.03;5059421;28;20025;-57
2023/07/18 02:12:20;;;;;;;4.53;2.50;;;;;;;20.88;52.05;102031.63;5062069;28;20036;-57
2023/07/18 02:14:45;;;;;;;2.40;2.03;;;;;;;20.86;52.10;102033.63;5058534;28;20065;-58
2023/07/18 02:17:11;;;;;;;3.25;2.15;;;;;;;20.86;51.85;102031.75;5060176;28;20079;-57
2023/07/18 02:19:36;;;;;;;4.65;2.20;;;;;;;20.85;52.29;102031.91;5064431;28;20116;-57
2023/07/18 02:22:03;;;;;;;3.65;2.60;;;;;;;20.85;52.47;102031.91;5065944;28;20482;-57
2023/07/18 02:24:28;;;;;;;6.50;2.70;;;;;;;20.85;51.85;102034.63;5060293;28;20049;-57
2023/07/18 02:26:56;;;;;;;4.47;2.60;;;;;;;20.84;51.93;102033.75;5043911;28;20052;-57
2023/07/18 02:29:22;;;;;;;3.65;1.90;;;;;;;20.83;51.83;102039.31;5056817;28;20039;-57
2023/07/18 02:31:47;;;;;;;4.90;2.00;;;;;;;20.82;51.90;102032.19;5061816;28;20033;-57
2023/07/18 02:34:13;;;;;;;3.45;2.40;;;;;;;20.81;51.75;102035.88;5058628;28;20036;-57
2023/07/18 02:36:38;;;;;;;4.45;2.25;;;;;;;20.81;51.83;102042.16;5058608;28;20085;-57
2023/07/18 02:39:07;;;;;;;5.13;2.40;;;;;;;20.79;51.78;102038.72;5065897;28;20108;-57
2023/07/18 02:41:33;;;;;;;6.88;2.80;;;;;;;20.77;51.97;102029.91;5061742;28;20072;-58
2023/07/18 02:43:58;;;;;;;4.53;2.00;;;;;;;20.79;52.00;102029.72;5060163;28;20048;-57
2023/07/18 02:46:24;;;;;;;4.20;2.50;;;;;;;20.78;51.81;102030.75;5059074;28;20067;-57
2023/07/18 02:48:49;;;;;;;4.50;2.13;;;;;;;20.77;51.54;102029.91;5063721;28;20029;-58
2023/07/18 02:51:15;;;;;;;4.82;2.80;;;;;;;20.76;51.53;102027.31;5057919;28;20535;-57
2023/07/18 02:53:40;;;;;;;4.90;2.17;;;;;;;20.76;51.85;102039.00;5066726;28;20048;-57
2023/07/18 02:56:06;;;;;;;3.55;2.05;;;;;;;20.75;51.48;102036.41;5061394;28;20471;-58
2023/07/18 02:58:31;;;;;;;3.45;2.30;;;;;;;20.75;51.58;102033.72;5054790;28;20033;-57
2023/07/18 03:00:56;;;;;;;7.88;1.90;;;;;;;20.73;51.49;102035.69;5064178;28;20051;-57
2023/07/18 03:03:22;;;;;;;3.90;2.13;;;;;;;20.73;51.45;102033.00;5058833;28;20086;-57
2023/07/18 03:05:52;;;;;;;2.47;1.98;;;;;;;20.70;51.30;102028.72;5064071;28;20037;-57
2023/07/18 03:08:17;;;;;;;3.05;2.08;;;;;;;20.72;51.38;102031.28;5056596;28;20031;-58
2023/07/18 03:10:43;;;;;;;3.50;1.80;;;;;;;20.71;51.28;102025.00;5065706;28;20029;-57
2023/07/18 03:13:08;;;;;;;2.28;1.95;;;;;;;20.70;51.34;102028.72;5058392;28;20545;-57
2023/07/18 03:15:34;;;;;;;2.88;1.70;;;;;;;20.69;51.26;102025.16;5062100;28;20040;-57
2023/07/18 03:18:00;;;;;;;2.42;2.10;;;;;;;20.68;51.24;102023.44;5063015;28;20052;-57
2023/07/18 03:20:26;;;;;;;3.13;1.73;;;;;;;20.67;51.36;102037.94;5061791;28;20036;-57
2023/07/18 03:22:52;;;;;;;4.80;2.20;;;;;;;20.67;51.39;102035.22;5060389;28;20029;-57
2023/07/18 03:25:19;;;;;;;2.53;1.75;;;;;;;20.66;51.37;102033.53;5060650;28;20504;-58
2023/07/18 03:27:45;;;;;;;3.92;1.98;;;;;;;20.66;51.12;102030.84;5063970;28;20086;-58
2023/07/18 03:30:12;;;;;;;4.63;2.55;;;;;;;20.65;51.17;102025.53;5063761;28;20119;-57
2023/07/18 03:32:38;;;;;;;3.28;2.17;;;;;;;20.64;51.30;102030.13;5064508;28;20033;-57
2023/07/18 03:35:06;;;;;;;4.90;1.98;;;;;;;20.63;51.14;102025.69;5060745;28;20033;-58
2023/07/18 03:37:32;;;;;;;2.85;1.83;;;;;;;20.62;50.77;102029.41;5058028;28;20047;-57
2023/07/18 03:39:58;;;;;;;2.83;1.83;;;;;;;20.61;50.99;102027.66;5060171;28;20044;-57
2023/07/18 03:42:23;;;;;;;5.05;1.95;;;;;;;20.60;50.91;102034.09;5060261;28;20045;-57
2023/07/18 03:44:48;;;;;;;5.00;1.83;;;;;;;20.60;50.63;102027.78;5054870;28;20425;-57
2023/07/18 03:47:14;;;;;;;1.77;1.60;;;;;;;20.58;50.73;102030.63;5066343;28;20067;-57
2023/07/18 03:49:39;;;;;;;3.00;1.75;;;;;;;20.57;50.56;102031.59;5058969;28;20036;-57
2023/07/18 03:52:05;;;;;;;3.33;2.03;;;;;;;20.56;50.96;102026.31;5060574;28;20478;-57
2023/07/18 03:54:33;;;;;;;7.55;1.95;;;;;;;20.55;50.72;102041.72;5066580;28;20367;-57
2023/07/18 03:56:58;;;;;;;4.18;1.95;;;;;;;20.54;50.44;102029.16;5062234;28;20032;-57
2023/07/18 03:59:23;;;;;;;2.75;2.10;;;;;;;20.54;50.81;102029.16;5063286;28;20032;-57
2023/07/18 04:01:49;;;;;;;1.75;1.63;;;;;;;20.53;50.36;102016.63;5062624;28;20112;-57
2023/07/18 04:04:15;;;;;;;2.85;1.67;;;;;;;20.51;50.75;102019.47;5061495;28;20394;-57
2023/07/18 04:06:43;;;;;;;2.42;1.85;;;;;;;20.50;50.76;102016.88;5062196;28;20067;-57
2023/07/18 04:09:09;;;;;;;3.65;1.98;;;;;;;20.49;50.69;102010.63;5061540;28;20027;-57
2023/07/18 04:11:35;;;;;;;3.22;1.75;;;;;;;20.51;50.52;102013.22;5058158;28;20399;-57
2023/07/18 04:14:01;;;;;;;4.63;1.63;;;;;;;20.49;50.64;101999.81;5059715;28;20028;-57
2023/07/18 04:16:26;;;;;;;3.10;1.67;;;;;;;20.49;50.23;102001.66;5059590;28;20053;-57
2023/07/18 04:18:52;;;;;;;2.40;1.63;;;;;;;20.48;50.32;101991.81;5059346;28;20071;-57
2023/07/18 04:21:17;;;;;;;2.47;1.73;;;;;;;20.47;50.18;101995.53;5064944;28;20029;-57
2023/07/18 04:23:43;;;;;;;4.22;1.77;;;;;;;20.47;50.56;102000.94;5063107;28;20033;-57
2023/07/18 04:26:09;;;;;;;5.75;1.92;;;;;;;20.46;50.23;101994.66;5063964;28;20058;-57
2023/07/18 04:28:39;;;;;;;4.55;1.90;;;;;;;20.46;50.23;101997.34;5060445;28;20078;-57
2023/07/18 04:31:05;;;;;;;2.50;1.95;;;;;;;20.46;50.43;101993.81;5064792;28;20367;-57
2023/07/18 04:33:39;;;;;;;4.15;1.65;;;;;;;20.46;50.11;101993.81;5059235;28;20074;-58
2023/07/18 04:36:06;;;;;;;2.47;1.70;;;;;;;20.45;50.59;101992.97;5061186;28;20024;-57
2023/07/18 04:38:32;;;;;;;3.25;1.67;;;;;;;20.44;50.01;101998.50;5060515;28;20509;-57
2023/07/18 04:40:58;;;;;;;4.93;1.85;;;;;;;20.42;50.62;101989.66;5057479;28;20021;-57
2023/07/18 04:43:23;;;;;;;4.72;1.80;;;;;;;20.42;50.31;101997.78;5058113;28;20040;-57
2023/07/18 04:45:49;;;;;;;5.53;1.80;;;;;;;20.42;50.64;102000.47;5057657;28;20036;-57
2023/07/18 04:48:16;;;;;;;2.45;1.42;;;;;;;20.41;50.34;101993.34;5058761;28;20024;-57
2023/07/18 04:50:43;;;;;;;2.20;1.70;;;;;;;20.41;50.28;101996.94;5063560;28;20040;-57
2023/07/18 04:53:09;;;;;;;3.38;1.60;;;;;;;20.41;50.43;101996.06;5059519;28;20131;-57
2023/07/18 04:55:35;;;;;;;3.05;1.50;;;;;;;20.40;50.52;101991.66;5062332;28;20033;-57
2023/07/18 04:58:02;;;;;;;4.63;1.52;;;;;;;20.39;50.28;101998.91;5059243;28;20116;-57
2023/07/18 05:00:29;;;;;;;3.08;1.80;;;;;;;20.39;50.40;101996.22;5063745;28;20032;-57
2023/07/18 05:02:54;;;;;;;2.15;1.60;;;;;;;20.38;50.40;101994.47;5060024;28;20025;-57
2023/07/18 05:05:20;;;;;;;2.70;1.70;;;;;;;20.38;50.23;101990.94;5059301;28;20025;-57
2023/07/18 05:07:47;;;;;;;3.28;1.80;;;;;;;20.37;50.35;101990.06;5061132;28;20482;-57
2023/07/18 05:10:12;;;;;;;4.13;1.70;;;;;;;20.38;50.32;101988.22;5063382;28;20115;-57
2023/07/18 05:12:38;;;;;;;3.03;1.73;;;;;;;20.39;50.23;101987.22;5058891;28;20124;-57
2023/07/18 05:15:04;;;;;;;3.70;1.67;;;;;;;20.38;50.32;102001.75;5056017;28;20360;-57
2023/07/18 05:17:30;;;;;;;5.82;1.60;;;;;;;20.38;50.38;101993.63;5058238;28;20057;-57
2023/07/18 05:19:55;;;;;;;4.07;1.63;;;;;;;20.38;50.52;101999.03;5057216;28;20372;-57
2023/07/18 05:22:21;;;;;;;3.03;1.60;;;;;;;20.37;50.50;101994.59;5055185;28;20070;-57
2023/07/18 05:24:46;;;;;;;2.28;1.45;;;;;;;20.37;50.39;101989.19;5057980;28;20116;-57
2023/07/18 05:27:11;;;;;;;2.70;1.33;;;;;;;20.37;50.29;101997.31;5059193;28;20033;-57
2023/07/18 05:29:37;;;;;;;4.00;1.48;;;;;;;20.36;50.53;101993.75;5059720;28;20033;-57
2023/07/18 05:32:03;;;;;;;2.65;1.35;;;;;;;20.37;50.60;101994.59;5066651;28;20020;-57
2023/07/18 05:34:28;;;;;;;2.85;1.45;;;;;;;20.36;50.49;101995.63;5055792;28;20120;-57
2023/07/18 05:36:53;;;;;;;1.83;1.38;;;;;;;20.36;50.35;101992.91;5058603;28;20035;-58
2023/07/18 05:39:19;;;;;;;3.42;1.65;;;;;;;20.35;50.55;101992.03;5059366;28;20061;-58
2023/07/18 05:41:44;;;;;;;1.58;1.38;;;;;;;20.37;50.73;101989.19;5054793;28;20063;-57
2023/07/18 05:44:10;;;;;;;1.67;1.20;;;;;;;20.37;50.72;101983.78;5052439;28;20063;-57
2023/07/18 05:46:35;;;;;;;2.15;1.20;;;;;;;20.36;50.55;101992.91;5056297;28;20048;-57
2023/07/18 05:49:00;;;;;;;4.68;1.58;;;;;;;20.37;50.59;101995.50;5056987;28;20029;-57
2023/07/18 05:51:26;;;;;;;4.47;1.77;;;;;;;20.36;50.71;101991.06;5058727;28;20116;-57
2023/07/18 05:53:51;;;;;;;1.63;1.30;;;;;;;20.36;50.52;101993.75;5060019;28;20448;-57
2023/07/18 05:56:16;;;;;;;3.30;1.45;;;;;;;20.37;50.89;101995.50;5040135;28;20041;-57
2023/07/18 05:58:42;;;;;;;5.97;1.40;;;;;;;20.37;50.83;102000.03;5062317;28;20052;-57
2023/07/18 06:01:12;;;;;;;7.25;2.00;;;;;;;20.36;51.10;101998.31;5056847;28;20028;-58
2023/07/18 06:03:38;;;;;;;4.57;1.58;;;;;;;20.37;51.17;102006.31;5058487;28;20029;-58
2023/07/18 06:06:03;;;;;;;5.43;1.48;;;;;;;20.37;51.12;102005.44;5054129;28;20029;-58
2023/07/18 06:08:28;;;;;;;3.42;1.33;;;;;;;20.37;51.15;102003.59;5060708;28;20028;-58
2023/07/18 06:10:57;;;;;;;4.45;1.50;;;;;;;20.37;51.07;102003.59;5055429;28;20547;-58
2023/07/18 06:13:23;;;;;;;3.80;1.30;;;;;;;20.38;51.47;102009.88;5060082;28;20478;-58
2023/07/18 06:15:50;;;;;;;4.15;1.35;;;;;;;20.37;51.25;102005.44;5056310;28;20053;-58
2023/07/18 06:18:16;;;;;;;3.50;1.08;;;;;;;20.38;51.44;102007.16;5061770;28;20507;-58
2023/07/18 06:20:41;;;;;;;3.53;1.42;;;;;;;20.39;51.34;101995.31;5051455;28;20043;-58
2023/07/18 06:23:07;;;;;;;3.45;1.30;;;;;;;20.38;50.98;101999.88;5056287;28;20040;-58
2023/07/18 06:25:32;;;;;;;4.45;1.40;;;;;;;20.39;51.26;102007.03;5063124;28;20044;-58
2023/07/18 06:27:59;;;;;;;4.22;1.50;;;;;;;20.40;51.63;102002.47;5055494;28;20076;-57
2023/07/18 06:30:24;;;;;;;3.35;1.58;;;;;;;20.39;51.66;101998.03;5063271;28;20432;-58
2023/07/18 06:32:50;;;;;;;3.15;1.50;;;;;;;20.40;51.45;101995.19;5058851;28;20069;-58
2023/07/18 06:35:15;;;;;;;6.75;1.80;;;;;;;20.40;51.38;102005.16;5055952;28;20418;-58
2023/07/18 06:37:41;;;;;;;2.35;1.30;;;;;;;20.41;51.58;102006.88;5061242;28;20032;-58
2023/07/18 06:40:10;;;;;;;4.40;1.20;;;;;;;20.41;51.90;102001.47;5057943;28;20444;-58
2023/07/18 06:42:36;;;;;;;2.88;1.10;;;;;;;20.41;51.52;101999.63;5052008;28;20060;-58
2023/07/18 06:45:03;;;;;;;3.58;1.17;;;;;;;20.42;51.72;101997.78;5049849;28;20053;-58
2023/07/18 06:47:29;;;;;;;3.28;1.50;;;;;;;20.42;51.71;102003.19;5057368;28;20579;-58
2023/07/18 06:49:54;;;;;;;3.15;1.27;;;;;;;20.43;51.80;101999.50;5051142;28;20025;-58
2023/07/18 06:52:20;;;;;;;3.50;1.30;;;;;;;20.44;52.04;101996.63;5051841;28;20076;-58
2023/07/18 06:54:45;;;;;;;2.05;1.17;;;;;;;20.44;51.66;101995.78;5055348;28;20021;-58
2023/07/18 06:57:12;;;;;;;3.80;1.23;;;;;;;20.43;51.76;101994.09;5057526;28;20056;-58
2023/07/18 06:59:37;;;;;;;2.35;0.77;;;;;;;20.43;51.75;101989.53;5061975;28;20032;-59
2023/07/18 07:02:03;;;;;;;3.17;1.10;;;;;;;20.45;51.63;101989.41;5057938;28;20036;-58
2023/07/18 07:04:29;;;;;;;3.38;1.13;;;;;;;20.45;51.72;101986.69;5061764;28;20497;-58
2023/07/18 07:06:54;;;;;;;2.13;1.00;;;;;;;20.44;51.86;101984.97;5060941;28;20045;-58
2023/07/18 07:09:20;;;;;;;3.92;0.93;;;;;;;20.46;51.91;101985.69;5062531;28;20060;-58
2023/07/18 07:11:45;;;;;;;2.97;1.30;;;;;;;20.46;51.29;101993.81;5063114;28;20033;-58
2023/07/18 07:14:11;;;;;;;3.95;1.17;;;;;;;20.44;51.54;101985.81;5054998;28;20395;-58
2023/07/18 07:16:36;;;;;;;2.08;1.00;;;;;;;20.46;51.81;101988.41;5054988;28;20065;-58
2023/07/18 07:19:02;;;;;;;1.50;0.80;;;;;;;20.47;52.08;101992.84;5061052;28;20102;-58
2023/07/18 07:21:28;;;;;;;2.20;1.02;;;;;;;20.47;51.83;101990.13;5061456;28;20036;-58
2023/07/18 07:23:54;;;;;;;3.92;1.00;;;;;;;20.47;51.73;101990.97;5057395;28;20021;-58
2023/07/18 07:26:19;;;;;;;3.00;1.08;;;;;;;20.50;51.95;101993.41;5046990;28;20048;-61
2023/07/18 07:28:45;;;;;;;5.35;1.00;;;;;;;20.54;52.82;101990.44;5059069;28;20032;-64
2023/07/18 07:31:11;;;;;;;6.55;1.30;;;;;;;20.54;52.61;101991.28;5057385;28;20037;-64
2023/07/18 07:33:36;;;;;;;0.85;0.73;;;;;;;20.54;52.36;101991.28;5058850;28;20036;-64
2023/07/18 07:36:02;;;;;;;2.63;1.00;;;;;;;20.56;52.21;101983.03;5061517;28;20068;-63
2023/07/18 07:38:27;;;;;;;6.00;1.20;;;;;;;20.55;52.14;101990.28;5055587;28;20029;-63
2023/07/18 07:40:53;;;;;;;2.58;1.08;;;;;;;20.56;52.17;101986.63;5053941;28;20434;-63
2023/07/18 07:43:18;;;;;;;3.83;1.05;;;;;;;20.55;52.26;101987.59;5062011;28;20490;-63
2023/07/18 07:45:44;;;;;;;4.80;1.05;;;;;;;20.57;52.21;101985.59;5061347;28;20394;-63
2023/07/18 07:48:09;;;;;;;3.17;1.10;;;;;;;20.58;52.49;101987.34;5060988;28;20032;-64
2023/07/18 07:50:35;;;;;;;1.35;0.90;;;;;;;20.58;52.24;101986.44;5060597;28;20035;-64
2023/07/18 07:53:01;;;;;;;3.55;0.90;;;;;;;20.60;51.88;101998.03;5053151;28;20111;-63
2023/07/18 07:55:27;;;;;;;5.47;0.73;;;;;;;20.60;52.07;101981.78;5058087;28;20061;-64
2023/07/18 07:57:53;;;;;;;0.82;0.75;;;;;;;20.61;51.96;101987.06;5058533;28;20028;-63
2023/07/18 08:00:19;;;;;;;2.28;1.02;;;;;;;20.62;51.93;101980.69;5062687;28;20097;-64
2023/07/18 08:02:45;;;;;;;1.83;1.00;;;;;;;20.64;52.01;101985.97;5041491;28;20059;-64
2023/07/18 08:05:10;;;;;;;1.38;0.70;;;;;;;20.62;51.79;101983.38;5058011;28;20033;-64
2023/07/18 08:07:36;;;;;;;2.17;0.70;;;;;;;20.64;51.58;101984.09;5059343;28;20033;-64
2023/07/18 08:10:03;;;;;;;2.75;0.88;;;;;;;20.64;51.88;101973.28;5056340;28;20036;-64
2023/07/18 08:12:28;;;;;;;4.28;0.90;;;;;;;20.64;51.67;101978.69;5061037;28;20360;-63
2023/07/18 08:14:53;;;;;;;3.67;1.38;;;;;;;20.65;51.73;101982.25;5056720;28;20091;-64
2023/07/18 08:17:19;;;;;;;2.38;0.85;;;;;;;20.66;51.83;101974.00;5056829;28;20056;-63
2023/07/18 08:19:44;;;;;;;3.00;0.90;;;;;;;20.68;52.34;101972.00;5054889;28;20479;-63
2023/07/18 08:22:10;;;;;;;2.75;0.80;;;;;;;20.68;53.10;101977.44;5061354;28;20390;-63
2023/07/18 08:24:36;;;;;;;4.20;1.10;;;;;;;20.72;54.04;101971.75;5067368;28;20028;-63
2023/07/18 08:27:01;;;;;;;1.77;0.90;;;;;;;20.74;54.01;101969.75;5066518;28;20044;-63
2023/07/18 08:29:28;;;;;;;2.08;0.90;;;;;;;20.75;53.76;101971.44;5059118;28;20031;-63
2023/07/18 08:31:54;;;;;;;1.13;0.70;;;;;;;20.75;53.35;101964.19;5062981;28;20040;-63
2023/07/18 08:34:20;;;;;;;3.72;0.98;;;;;;;20.77;52.27;101958.63;5060646;28;20111;-63
2023/07/18 08:36:47;;;;;;;2.28;0.93;;;;;;;20.77;52.30;101953.22;5068196;28;20442;-63
2023/07/18 08:39:13;;;;;;;5.88;0.80;;;;;;;20.78;51.96;101957.66;5058204;28;20037;-63
2023/07/18 08:41:42;;;;;;;7.13;0.70;;;;;;;20.79;51.60;101957.53;5062960;28;20522;-63
2023/07/18 08:44:09;;;;;;;3.10;0.70;;;;;;;20.78;51.96;101954.94;5057697;28;20032;-63
2023/07/18 08:46:35;;;;;;;0.52;0.52;;;;;;;20.79;52.00;101951.22;5053591;28;20060;-63
2023/07/18 08:49:01;;;;;;;4.05;0.70;;;;;;;20.81;51.94;101949.25;5052976;28;20123;-63
2023/07/18 08:51:30;;;;;;;0.90;0.60;;;;;;;20.79;51.88;101952.13;5057926;28;20025;-63
2023/07/18 08:53:57;;;;;;;5.40;1.00;;;;;;;20.82;52.09;101946.41;5062344;28;20106;-63
2023/07/18 08:56:23;;;;;;;2.35;0.70;;;;;;;20.82;52.39;101942.84;5061513;28;20526;-63
2023/07/18 08:58:49;;;;;;;2.03;0.70;;;;;;;20.85;52.60;101939.88;5058189;28;20446;-63
2023/07/18 09:01:16;;;;;;;1.30;0.60;;;;;;;20.85;52.18;101942.59;5062726;28;20025;-63
2023/07/18 09:03:41;;;;;;;3.00;0.63;;;;;;;20.85;51.73;101938.03;5060065;28;20115;-63
2023/07/18 09:06:20;;;;;;;1.13;0.50;;;;;;;20.87;52.36;101937.88;5061877;28;20479;-63
2023/07/18 09:08:46;;;;;;;2.33;0.60;;;;;;;20.88;51.33;101935.00;5057088;28;20416;-63
2023/07/18 09:11:12;;;;;;;1.30;0.52;;;;;;;20.87;51.71;101930.59;5053659;28;20031;-63
2023/07/18 09:13:42;;;;;;;2.38;0.68;;;;;;;20.89;51.84;101925.06;5056874;28;20043;-63
2023/07/18 09:16:21;;;;;;;3.38;0.70;;;;;;;20.90;52.04;101926.75;5057852;28;20504;-63
2023/07/18 09:18:51;;;;;;;2.88;0.70;;;;;;;20.90;52.07;101915.94;5056885;28;20029;-63
2023/07/18 09:21:17;;;;;;;1.92;0.50;;;;;;;20.92;51.94;101908.53;5056239;28;20024;-63
2023/07/18 09:23:44;;;;;;;1.70;0.55;;;;;;;20.94;52.16;101917.34;5054205;28;20049;-63
2023/07/18 09:26:12;;;;;;;0.93;0.50;;;;;;;20.93;51.42;101915.66;5055175;28;20471;-63
2023/07/18 09:28:41;;;;;;;2.92;0.65;;;;;;;20.94;51.68;101905.69;5052886;28;20107;-63
2023/07/18 09:31:36;;;;;;;2.25;0.88;;;;;;;20.98;51.59;101902.56;5060449;28;20086;-63
2023/07/18 09:34:11;;;;;;;1.70;0.55;;;;;;;20.99;51.93;101901.56;5045876;28;20051;-63
2023/07/18 09:36:37;;;;;;;0.73;0.50;;;;;;;20.98;51.85;101907.97;5056929;28;20043;-63
2023/07/18 09:39:03;;;;;;;2.05;0.40;;;;;;;20.98;51.56;101902.56;5056423;28;20467;-63
2023/07/18 09:41:31;;;;;;;1.85;0.65;;;;;;;21.01;52.13;101904.97;5052951;28;20485;-63
2023/07/18 09:44:00;;;;;;;0.70;0.63;;;;;;;20.99;49.94;101898.84;5054842;28;20464;-63
2023/07/18 09:46:27;;;;;;;2.53;0.98;;;;;;;21.00;49.98;101900.56;5056361;28;20025;-63
2023/07/18 09:48:52;;;;;;;1.05;0.40;;;;;;;21.01;49.84;101906.84;5040354;28;20047;-63
2023/07/18 09:51:21;;;;;;;2.55;0.68;;;;;;;21.00;49.93;101906.00;5061641;28;20024;-63
2023/07/18 09:53:48;;;;;;;2.80;0.68;;;;;;;21.01;49.52;101913.09;5055327;28;20021;-63
2023/07/18 09:56:17;;;;;;;0.68;0.40;;;;;;;21.00;50.42;101907.81;5059052;28;20398;-63
2023/07/18 09:58:46;;;;;;;3.33;0.90;;;;;;;21.00;50.02;101903.28;5059194;28;20029;-63
2023/07/18 10:01:13;;;;;;;7.75;0.77;;;;;;;21.01;50.92;101907.69;5054435;28;20592;-63
2023/07/18 10:03:39;;;;;;;1.33;0.40;;;;;;;21.03;50.75;101905.69;5063894;28;20044;-63
2023/07/18 10:06:07;;;;;;;1.33;0.52;;;;;;;21.03;50.85;101892.16;5056632;28;20051;-63
2023/07/18 10:08:33;;;;;;;0.98;0.57;;;;;;;21.04;50.81;101896.59;5049209;28;20028;-63
2023/07/18 10:11:03;;;;;;;1.85;0.60;;;;;;;21.05;50.75;101892.00;5054046;28;20024;-63
2023/07/18 10:13:30;;;;;;;1.17;0.60;;;;;;;21.07;50.54;101888.16;5044416;28;20114;-63
2023/07/18 10:16:13;;;;;;;3.72;0.52;;;;;;;21.09;50.34;101880.78;5052344;28;20379;-63
2023/07/18 10:18:51;;;;;;;1.30;0.60;;;;;;;21.07;49.30;101879.19;5060288;28;20087;-63
2023/07/18 10:21:34;;;;;;;1.10;0.63;;;;;;;21.08;49.33;101868.22;5051885;28;20049;-63
2023/07/18 10:24:21;;;;;;;4.25;0.70;;;;;;;21.08;49.19;101854.69;5062356;28;20070;-63
2023/07/18 10:27:07;;;;;;;1.48;0.60;;;;;;;21.08;49.70;101859.25;5064951;28;20037;-63
2023/07/18 10:29:38;;;;;;;2.97;0.60;;;;;;;21.07;49.81;101865.66;5066688;28;20044;-63
2023/07/18 10:32:04;;;;;;;0.60;0.52;;;;;;;21.08;49.66;101854.69;5070863;28;20040;-63
2023/07/18 10:34:37;;;;;;;1.40;0.50;;;;;;;21.07;49.85;101850.25;5047849;28;20542;-63
2023/07/18 10:37:06;;;;;;;1.30;0.50;;;;;;;21.09;50.25;101851.00;5061376;28;20119;-63
2023/07/18 10:39:43;;;;;;;1.08;0.50;;;;;;;21.09;50.43;101851.00;5063454;28;20111;-63
2023/07/18 10:42:20;;;;;;;2.60;0.75;;;;;;;21.13;49.86;101845.28;5063615;28;20406;-63
2023/07/18 10:44:57;;;;;;;1.30;0.73;;;;;;;21.11;49.77;101837.28;5052998;28;20047;-63
2023/07/18 10:47:23;;;;;;;1.45;0.75;;;;;;;21.15;49.67;101843.28;5051147;28;20095;-63
2023/07/18 10:49:48;;;;;;;1.08;0.60;;;;;;;21.14;49.32;101836.16;5060238;28;20037;-63
2023/07/18 10:52:15;;;;;;;1.38;0.75;;;;;;;21.15;49.41;101840.56;5054623;28;20364;-63
2023/07/18 10:54:50;;;;;;;0.55;0.30;;;;;;;21.15;48.52;101836.03;5055848;28;20074;-63
2023/07/18 10:57:16;;;;;;;2.00;0.80;;;;;;;21.18;48.29;101832.16;5066115;28;20493;-63
2023/07/18 10:59:44;;;;;;;1.27;0.60;;;;;;;21.19;48.02;101834.72;5063731;28;20063;-63
2023/07/18 11:02:11;;;;;;;3.33;0.70;;;;;;;21.17;47.89;101825.91;5058582;28;20082;-63
2023/07/18 11:04:36;;;;;;;3.38;0.65;;;;;;;21.19;48.48;101831.16;5055609;28;20021;-63
2023/07/18 11:07:02;;;;;;;0.47;0.45;;;;;;;21.20;49.14;101822.03;5061328;28;20043;-63
2023/07/18 11:09:27;;;;;;;2.65;0.70;;;;;;;21.20;49.29;101820.19;5059772;28;20475;-66
2023/07/18 11:11:54;;;;;;;0.60;0.52;;;;;;;21.20;49.43;101820.19;5063755;28;20513;-63
2023/07/18 11:14:19;;;;;;;1.10;0.50;;;;;;;21.23;48.98;101830.72;5058856;28;20037;-63
2023/07/18 11:16:45;;;;;;;2.50;0.70;;;;;;;21.23;48.41;101830.72;5064060;28;20531;-63
2023/07/18 11:19:10;;;;;;;2.75;0.55;;;;;;;21.24;48.40;101828.88;5061945;28;20025;-63
2023/07/18 11:21:37;;;;;;;2.78;0.60;;;;;;;21.25;49.44;101831.44;5058006;28;20470;-63